Time;durP1;ratioP1;P1;durP2;ratioP2;P2;SDS_P1;SDS_P2;PMS_P1;PMS_P2;Temp;Humidity;BMP_temperature;BMP_pressure;BME280_temperature;BME280_humidity;BME280_pressure;Samples;Min_cycle;Max_cycle;Signal;HPM_P1;HPM_P2
2023/07/10 00:01:46;;;;;;;5.13;1.87;;;;;;;-145.18;100.00;46652.59;5076217;28;20117;-63
2023/07/10 00:04:17;;;;;;;4.87;1.73;;;;;;;-145.18;100.00;46652.59;5073698;28;20514;-63
2023/07/10 00:06:43;;;;;;;4.00;1.90;;;;;;;-145.18;100.00;46652.59;5076583;28;20080;-63
2023/07/10 00:09:08;;;;;;;8.10;2.30;;;;;;;-145.18;100.00;46646.72;5074082;28;20097;-63
2023/07/10 00:11:34;;;;;;;5.60;1.90;;;;;;;-145.18;100.00;46650.63;5073389;28;20091;-63
2023/07/10 00:13:59;;;;;;;6.53;2.17;;;;;;;-145.18;100.00;46648.69;5073598;28;20029;-63
2023/07/10 00:16:27;;;;;;;5.33;1.87;;;;;;;-145.18;100.00;46648.69;5077049;28;20042;-63
2023/07/10 00:18:52;;;;;;;7.70;2.30;;;;;;;-145.18;100.00;46648.69;5074120;28;20037;-62
2023/07/10 00:21:18;;;;;;;5.57;2.30;;;;;;;-145.18;100.00;46644.78;5073930;28;20089;-63
2023/07/10 00:23:44;;;;;;;5.87;2.60;;;;;;;-145.18;100.00;46646.72;5073199;28;20028;-63
2023/07/10 00:26:17;;;;;;;4.93;2.53;;;;;;;-145.18;100.00;46652.59;5071630;28;20096;-63
2023/07/10 00:28:42;;;;;;;6.83;2.60;;;;;;;-145.18;100.00;46648.69;5075658;28;20016;-63
2023/07/10 00:31:08;;;;;;;8.67;2.10;;;;;;;-145.18;100.00;46646.72;5075777;28;20077;-63
2023/07/10 00:33:34;;;;;;;6.17;2.33;;;;;;;-145.18;100.00;46650.63;5055735;28;20127;-63
2023/07/10 00:35:59;;;;;;;6.03;2.23;;;;;;;-145.18;100.00;46646.72;5058877;28;20490;-63
2023/07/10 00:38:30;;;;;;;6.33;2.10;;;;;;;-145.18;100.00;46648.69;5055035;28;20036;-63
2023/07/10 00:40:57;;;;;;;6.03;1.77;;;;;;;-145.18;100.00;46646.72;5073109;28;20412;-63
2023/07/10 00:43:30;;;;;;;3.37;1.80;;;;;;;-145.18;100.00;46646.72;5073291;28;20043;-63
2023/07/10 00:46:04;;;;;;;8.97;2.87;;;;;;;-145.18;100.00;46648.69;5073693;28;20523;-63
2023/07/10 00:48:32;;;;;;;7.07;2.03;;;;;;;-145.18;100.00;46646.72;5072935;28;20362;-63
2023/07/10 00:51:03;;;;;;;6.33;2.20;;;;;;;-145.18;100.00;46646.72;5072519;28;20032;-63
2023/07/10 00:53:32;;;;;;;5.37;2.53;;;;;;;-145.18;100.00;46648.69;5076501;28;20024;-63
2023/07/10 00:56:02;;;;;;;4.90;2.87;;;;;;;-145.18;100.00;46652.59;5072702;28;20064;-63
2023/07/10 00:58:40;;;;;;;5.33;2.00;;;;;;;-145.18;100.00;46646.72;5072615;28;20036;-63
2023/07/10 01:01:10;;;;;;;7.97;2.37;;;;;;;-145.18;100.00;46648.69;5072616;28;20120;-65
2023/07/10 01:03:38;;;;;;;5.43;2.33;;;;;;;-145.18;100.00;46644.78;5073347;28;20028;-65
2023/07/10 01:06:18;;;;;;;10.23;2.40;;;;;;;-145.18;100.00;46642.81;5073802;28;20032;-65
2023/07/10 01:08:49;;;;;;;3.10;1.87;;;;;;;-145.18;100.00;46646.72;5074429;28;20043;-65
2023/07/10 01:11:15;;;;;;;6.73;2.33;;;;;;;-145.18;100.00;46644.78;5072538;28;20101;-65
2023/07/10 01:13:43;;;;;;;4.60;2.63;;;;;;;-145.18;100.00;46679.94;5073480;28;20071;-65
2023/07/10 01:16:10;;;;;;;6.87;2.70;;;;;;;-145.18;100.00;46640.88;5074462;28;20034;-65
2023/07/10 01:18:37;;;;;;;4.67;3.10;;;;;;;-145.18;100.00;46642.81;5072808;28;20128;-65
2023/07/10 01:21:32;;;;;;;9.83;3.67;;;;;;;-145.18;100.00;46642.81;5070965;28;20466;-65
2023/07/10 01:24:00;;;;;;;10.50;3.63;;;;;;;-145.18;100.00;46648.69;5074325;28;20033;-66
2023/07/10 01:26:27;;;;;;;5.47;3.27;;;;;;;-145.18;100.00;46640.88;5072647;28;20029;-65
2023/07/10 01:28:54;;;;;;;10.10;3.77;;;;;;;-145.18;100.00;46642.81;5073231;28;20041;-65
2023/07/10 01:31:21;;;;;;;9.00;3.77;;;;;;;-145.18;100.00;46648.69;5072806;28;20047;-65
2023/07/10 01:33:55;;;;;;;8.60;3.47;;;;;;;-145.18;100.00;46640.88;5073030;28;20082;-65
2023/07/10 01:36:28;;;;;;;6.17;3.47;;;;;;;-145.18;100.00;46679.94;5073432;28;20032;-65
2023/07/10 01:39:00;;;;;;;7.93;3.50;;;;;;;-145.18;100.00;46642.81;5072730;28;20064;-65
2023/07/10 01:41:39;;;;;;;6.30;3.17;;;;;;;-145.18;100.00;46679.94;5072281;28;20032;-65
2023/07/10 01:44:27;;;;;;;9.27;3.83;;;;;;;-145.18;100.00;46640.88;5070258;28;20029;-65
2023/07/10 01:46:55;;;;;;;10.30;3.07;;;;;;;-145.18;100.00;46644.78;5072132;28;20058;-65
2023/07/10 01:49:31;;;;;;;9.30;3.20;;;;;;;-145.18;100.00;46642.81;5074535;28;20047;-65
2023/07/10 01:51:58;;;;;;;11.70;3.73;;;;;;;-145.18;100.00;46642.81;5070338;28;20074;-65
2023/07/10 01:54:23;;;;;;;6.43;3.37;;;;;;;-145.18;100.00;46640.88;5072182;28;20035;-65
2023/07/10 01:56:49;;;;;;;7.17;3.37;;;;;;;-145.18;100.00;46642.81;5073594;28;20064;-65
2023/07/10 01:59:14;;;;;;;8.23;3.30;;;;;;;-145.18;100.00;46638.91;5074105;28;20042;-65
2023/07/10 02:01:40;;;;;;;9.47;3.43;;;;;;;-145.18;100.00;46642.81;5071307;28;20042;-66
2023/07/10 02:04:06;;;;;;;5.53;3.03;;;;;;;-145.18;100.00;46642.81;5072747;28;20029;-65
2023/07/10 02:06:35;;;;;;;9.53;3.53;;;;;;;-145.18;100.00;46642.81;5071980;28;20056;-65
2023/07/10 02:09:02;;;;;;;6.43;3.03;;;;;;;-145.18;100.00;46677.97;5071706;28;20055;-65
2023/07/10 02:11:27;;;;;;;5.77;2.67;;;;;;;-145.18;100.00;46660.41;5072824;28;20035;-66
2023/07/10 02:13:52;;;;;;;3.57;2.40;;;;;;;-145.18;100.00;46640.88;5072020;28;20036;-65
2023/07/10 02:16:18;;;;;;;3.30;1.70;;;;;;;-145.18;100.00;46676.03;5072792;28;20137;-65
2023/07/10 02:18:43;;;;;;;5.17;1.70;;;;;;;-145.18;100.00;46640.88;5071088;28;20024;-65
2023/07/10 02:21:09;;;;;;;3.73;1.30;;;;;;;-145.18;100.00;46679.94;5072164;28;20048;-65
2023/07/10 02:23:37;;;;;;;7.37;2.13;;;;;;;-145.18;100.00;46646.72;5073549;28;20051;-65
2023/07/10 02:26:04;;;;;;;5.03;1.60;;;;;;;-145.18;100.00;46640.88;5073967;28;20024;-64
2023/07/10 02:28:29;;;;;;;3.17;1.40;;;;;;;-145.18;100.00;46644.78;5071240;28;20082;-65
2023/07/10 02:30:55;;;;;;;5.10;1.67;;;;;;;-145.18;100.00;46679.94;5071138;28;20040;-66
2023/07/10 02:33:20;;;;;;;2.20;1.47;;;;;;;-145.18;100.00;46642.81;5073877;28;20089;-66
2023/07/10 02:35:46;;;;;;;3.47;1.67;;;;;;;-145.18;100.00;46648.69;5071077;28;20421;-66
2023/07/10 02:38:12;;;;;;;4.33;1.50;;;;;;;-145.18;100.00;46644.78;5071488;28;20055;-65
2023/07/10 02:40:38;;;;;;;7.13;2.20;;;;;;;-145.18;100.00;46679.94;5071284;28;20081;-65
2023/07/10 02:43:03;;;;;;;3.77;1.87;;;;;;;-145.18;100.00;46642.81;5071962;28;20036;-65
2023/07/10 02:45:29;;;;;;;5.07;2.53;;;;;;;-145.18;100.00;46646.72;5075727;28;20029;-65
2023/07/10 02:47:54;;;;;;;4.73;2.13;;;;;;;-145.18;100.00;46679.94;5077643;28;20086;-65
2023/07/10 02:50:20;;;;;;;6.93;2.17;;;;;;;-145.18;100.00;46677.97;5077810;28;20449;-65
2023/07/10 02:52:45;;;;;;;5.63;2.00;;;;;;;-145.18;100.00;46642.81;5063160;28;20423;-65
2023/07/10 02:55:11;;;;;;;6.43;2.43;;;;;;;-145.18;100.00;46642.81;5077702;28;20107;-65
2023/07/10 02:57:36;;;;;;;9.30;2.50;;;;;;;-145.18;100.00;46679.94;5079298;28;20041;-65
2023/07/10 03:00:03;;;;;;;4.93;1.83;;;;;;;-145.18;100.00;46640.88;5059076;28;20036;-65
2023/07/10 03:02:29;;;;;;;4.57;2.00;;;;;;;-145.18;100.00;46642.81;5077478;28;20504;-65
2023/07/10 03:04:54;;;;;;;6.20;2.43;;;;;;;-145.18;100.00;46640.88;5077668;28;20048;-65
2023/07/10 03:07:20;;;;;;;5.70;2.27;;;;;;;-145.18;100.00;46640.88;5059512;28;20447;-65
2023/07/10 03:09:45;;;;;;;6.57;2.70;;;;;;;-145.18;100.00;46642.81;5059577;28;20082;-65
2023/07/10 03:12:10;;;;;;;6.03;2.53;;;;;;;-145.18;100.00;46677.97;5078546;28;20036;-65
2023/07/10 03:14:36;;;;;;;5.50;2.47;;;;;;;-145.18;100.00;46642.81;5078903;28;20121;-65
2023/07/10 03:17:01;;;;;;;5.47;2.73;;;;;;;-145.18;100.00;46642.81;5077033;28;20115;-65
2023/07/10 03:19:31;;;;;;;4.57;2.50;;;;;;;-145.18;100.00;46640.88;5077401;28;20043;-65
2023/07/10 03:21:56;;;;;;;8.20;2.43;;;;;;;-145.18;100.00;46660.41;5078852;28;20476;-65
2023/07/10 03:24:22;;;;;;;4.60;2.40;;;;;;;-145.18;100.00;46638.91;5079176;28;20032;-65
2023/07/10 03:26:48;;;;;;;4.73;2.27;;;;;;;-145.18;100.00;46660.41;5077609;28;20032;-65
2023/07/10 03:29:15;;;;;;;5.17;2.50;;;;;;;-145.18;100.00;46638.91;5078285;28;20077;-65
2023/07/10 03:31:41;;;;;;;8.07;2.73;;;;;;;-145.18;100.00;46640.88;5080521;28;20043;-65
2023/07/10 03:34:07;;;;;;;4.80;2.57;;;;;;;-145.18;100.00;46640.88;5077752;28;20051;-65
2023/07/10 03:36:33;;;;;;;7.50;2.40;;;;;;;-145.18;100.00;46642.81;5078824;28;20480;-65
2023/07/10 03:38:59;;;;;;;3.60;2.37;;;;;;;-145.18;100.00;46642.81;5078882;28;20043;-66
2023/07/10 03:41:24;;;;;;;3.40;2.47;;;;;;;-145.18;100.00;46644.78;5077268;28;20045;-65
2023/07/10 03:43:50;;;;;;;11.17;2.73;;;;;;;-145.18;100.00;46638.91;5076732;28;20028;-65
2023/07/10 03:46:16;;;;;;;5.97;2.43;;;;;;;-145.18;100.00;46638.91;5060190;28;20404;-65
2023/07/10 03:48:42;;;;;;;4.80;2.20;;;;;;;-145.18;100.00;46644.78;5059615;28;20032;-65
2023/07/10 03:51:08;;;;;;;5.90;2.47;;;;;;;-145.18;100.00;46660.41;5072104;28;20526;-65
2023/07/10 03:53:36;;;;;;;6.90;2.60;;;;;;;-145.18;100.00;46642.81;5058953;28;20032;-65
2023/07/10 03:56:01;;;;;;;7.13;2.73;;;;;;;-145.18;100.00;46644.78;5053047;28;20458;-65
2023/07/10 03:58:30;;;;;;;4.53;2.80;;;;;;;-145.18;100.00;46636.94;5074983;28;20037;-65
2023/07/10 04:00:57;;;;;;;7.07;2.70;;;;;;;-145.18;100.00;46636.94;5076809;28;20039;-65
2023/07/10 04:03:24;;;;;;;6.13;2.73;;;;;;;-145.18;100.00;46642.81;5076533;28;20033;-66
2023/07/10 04:05:52;;;;;;;6.97;2.63;;;;;;;-145.18;100.00;46636.94;5055939;28;20039;-66
2023/07/10 04:08:23;;;;;;;8.33;2.97;;;;;;;-145.18;100.00;46676.03;5075125;28;20373;-66
2023/07/10 04:10:50;;;;;;;5.77;2.80;;;;;;;-145.18;100.00;46660.41;5078028;28;20029;-66
2023/07/10 04:13:16;;;;;;;5.77;2.50;;;;;;;-145.18;100.00;46660.41;5074026;28;20024;-65
2023/07/10 04:15:41;;;;;;;6.00;2.70;;;;;;;-145.18;100.00;46640.88;5058348;28;20032;-66
2023/07/10 04:18:07;;;;;;;6.83;2.83;;;;;;;-145.18;100.00;46636.94;5073579;28;20033;-65
2023/07/10 04:20:32;;;;;;;6.60;2.83;;;;;;;-145.18;100.00;46638.91;5074387;28;20119;-66
2023/07/10 04:22:57;;;;;;;5.27;2.43;;;;;;;-145.18;100.00;46660.41;5054974;28;20558;-65
2023/07/10 04:25:23;;;;;;;7.47;2.63;;;;;;;-145.18;100.00;46638.91;5074973;28;20060;-65
2023/07/10 04:27:48;;;;;;;6.80;2.63;;;;;;;-145.18;100.00;46635.00;5055616;28;20027;-65
2023/07/10 04:30:14;;;;;;;8.43;2.80;;;;;;;-145.18;100.00;46660.41;5075884;28;20442;-66
2023/07/10 04:32:39;;;;;;;8.47;2.50;;;;;;;-145.18;100.00;46638.91;5075895;28;20036;-63
2023/07/10 04:35:05;;;;;;;4.87;2.70;;;;;;;-145.18;100.00;46660.41;5080689;28;20040;-63
2023/07/10 04:37:30;;;;;;;6.13;2.43;;;;;;;-145.18;100.00;46635.00;5086038;28;20071;-63
2023/07/10 04:39:56;;;;;;;6.97;2.87;;;;;;;-145.18;100.00;46638.91;5077201;28;20044;-64
2023/07/10 04:42:21;;;;;;;8.10;2.83;;;;;;;-145.18;100.00;46642.81;5082660;28;20051;-63
2023/07/10 04:44:47;;;;;;;5.43;2.80;;;;;;;-145.18;100.00;46633.06;5093054;28;20409;-64
2023/07/10 04:47:12;;;;;;;9.53;2.80;;;;;;;-145.18;100.00;46633.06;5095578;28;20024;-63
2023/07/10 04:49:37;;;;;;;5.20;2.80;;;;;;;-145.18;100.00;46638.91;5077767;28;20098;-63
2023/07/10 04:52:03;;;;;;;6.27;3.20;;;;;;;-145.18;100.00;46638.91;5079409;28;20032;-63
2023/07/10 04:54:28;;;;;;;6.37;3.40;;;;;;;-145.18;100.00;46640.88;5075825;28;20036;-63
2023/07/10 04:56:54;;;;;;;5.97;3.80;;;;;;;-145.18;100.00;46636.94;5084282;28;20086;-63
2023/07/10 04:59:19;;;;;;;11.77;3.93;;;;;;;-145.18;100.00;46636.94;5083390;28;20036;-63
2023/07/10 05:01:44;;;;;;;8.13;3.60;;;;;;;-145.18;100.00;46638.91;5090416;28;20142;-63
2023/07/10 05:04:10;;;;;;;6.87;4.10;;;;;;;-145.18;100.00;46636.94;5086160;28;20766;-63
2023/07/10 05:06:36;;;;;;;5.63;3.80;;;;;;;-145.18;100.00;46633.06;5087303;28;20028;-63
2023/07/10 05:09:01;;;;;;;7.00;4.10;;;;;;;-145.18;100.00;46636.94;5074561;28;20162;-63
2023/07/10 05:11:29;;;;;;;10.93;5.67;;;;;;;-145.18;100.00;46636.94;5064498;28;20110;-63
2023/07/10 05:13:55;;;;;;;6.33;4.07;;;;;;;-145.18;100.00;46636.94;5081795;28;20028;-64
2023/07/10 05:16:21;;;;;;;8.97;4.67;;;;;;;-145.18;100.00;46638.91;5085781;28;20028;-63
2023/07/10 05:18:47;;;;;;;14.50;4.90;;;;;;;-145.18;100.00;46638.91;5083778;28;20044;-63
2023/07/10 05:21:13;;;;;;;9.17;4.83;;;;;;;-145.18;100.00;46636.94;5085866;28;20113;-63
2023/07/10 05:23:38;;;;;;;9.27;5.60;;;;;;;-145.18;100.00;46631.09;5083630;28;20149;-63
2023/07/10 05:26:07;;;;;;;9.00;5.10;;;;;;;-145.18;100.00;46638.91;5081993;28;20028;-63
2023/07/10 05:28:34;;;;;;;14.50;5.20;;;;;;;-145.18;100.00;46633.06;5068099;28;20066;-63
2023/07/10 05:31:01;;;;;;;9.17;5.13;;;;;;;-145.18;100.00;46631.09;5079791;28;20474;-67
2023/07/10 05:33:27;;;;;;;9.37;5.00;;;;;;;-145.18;100.00;46631.09;5088793;28;20061;-63
2023/07/10 05:35:57;;;;;;;12.97;5.23;;;;;;;-145.18;100.00;46635.00;5077964;28;20042;-63
2023/07/10 05:38:25;;;;;;;18.30;5.30;;;;;;;-145.18;100.00;46636.94;5078852;28;20105;-63
2023/07/10 05:40:52;;;;;;;10.67;6.53;;;;;;;-145.18;100.00;46633.06;5088642;28;20110;-66
2023/07/10 05:43:17;;;;;;;10.57;6.00;;;;;;;-145.18;100.00;46635.00;5054598;28;20036;-66
2023/07/10 05:45:43;;;;;;;9.47;5.63;;;;;;;-145.18;100.00;46636.94;5069336;28;20509;-66
2023/07/10 05:48:09;;;;;;;9.50;5.27;;;;;;;-145.18;100.00;46636.94;5083852;28;20123;-66
2023/07/10 05:50:34;;;;;;;8.93;4.73;;;;;;;-145.18;100.00;46636.94;5082818;28;20114;-66
2023/07/10 05:53:00;;;;;;;13.53;5.47;;;;;;;-145.18;100.00;46633.06;5085497;28;20038;-66
2023/07/10 05:55:25;;;;;;;11.50;5.17;;;;;;;-145.18;100.00;46638.91;5067861;28;20139;-66
2023/07/10 05:57:50;;;;;;;11.43;5.73;;;;;;;-145.18;100.00;46636.94;5085174;28;20028;-66
2023/07/10 06:00:16;;;;;;;12.67;4.70;;;;;;;-145.18;100.00;46636.94;5086527;28;20035;-66
2023/07/10 06:02:41;;;;;;;7.40;4.20;;;;;;;-145.18;100.00;46635.00;5084777;28;20024;-66
2023/07/10 06:05:07;;;;;;;6.93;2.93;;;;;;;-145.18;100.00;46636.94;5086821;28;20028;-66
2023/07/10 06:07:33;;;;;;;6.40;3.17;;;;;;;-145.18;100.00;46636.94;5089096;28;20028;-66
2023/07/10 06:09:58;;;;;;;7.33;3.17;;;;;;;-145.18;100.00;46640.88;5086784;28;20063;-66
2023/07/10 06:12:23;;;;;;;10.30;3.60;;;;;;;-145.18;100.00;46640.88;5084859;28;20059;-66
2023/07/10 06:14:49;;;;;;;5.00;2.83;;;;;;;-145.18;100.00;46646.72;5077479;28;20040;-66
2023/07/10 06:17:14;;;;;;;10.53;3.10;;;;;;;-145.18;100.00;46640.88;5073630;28;20036;-66
2023/07/10 06:19:40;;;;;;;6.30;2.80;;;;;;;-145.18;100.00;46642.81;5075909;28;20399;-66
2023/07/10 06:22:07;;;;;;;7.27;3.30;;;;;;;-145.18;100.00;46640.88;5078966;28;20111;-66
2023/07/10 06:24:33;;;;;;;7.63;2.87;;;;;;;-145.18;100.00;46640.88;5080219;28;20563;-67
2023/07/10 06:26:58;;;;;;;8.93;3.00;;;;;;;-145.18;100.00;46640.88;5091128;28;20119;-66
2023/07/10 06:29:24;;;;;;;8.47;3.00;;;;;;;-145.18;100.00;46640.88;5095203;28;20419;-66
2023/07/10 06:31:49;;;;;;;8.53;2.77;;;;;;;-145.18;100.00;46640.88;5089201;28;20089;-66
2023/07/10 06:34:14;;;;;;;7.73;3.30;;;;;;;-145.18;100.00;46638.91;5084387;28;20115;-66
2023/07/10 06:36:40;;;;;;;8.87;2.97;;;;;;;-145.18;100.00;46644.78;5077320;28;20044;-66
2023/07/10 06:39:05;;;;;;;14.53;3.40;;;;;;;-145.18;100.00;46644.78;5088305;28;20474;-66
2023/07/10 06:41:30;;;;;;;6.70;2.83;;;;;;;-145.18;100.00;46644.78;5077977;28;20111;-66
2023/07/10 06:43:56;;;;;;;8.03;2.70;;;;;;;-145.18;100.00;46644.78;5085284;28;20499;-67
2023/07/10 06:46:25;;;;;;;9.30;2.30;;;;;;;-145.18;100.00;46644.78;5086627;28;20027;-67
2023/07/10 06:48:51;;;;;;;9.20;2.63;;;;;;;-145.18;100.00;46648.69;5076617;28;20121;-66
2023/07/10 06:51:16;;;;;;;13.33;3.17;;;;;;;-145.18;100.00;46644.78;5085307;28;20541;-64
2023/07/10 06:53:42;;;;;;;7.27;2.90;;;;;;;-145.18;100.00;46648.69;5090286;28;20166;-63
2023/07/10 06:56:07;;;;;;;7.80;2.50;;;;;;;-145.18;100.00;46646.72;5090621;28;20064;-64
2023/07/10 06:58:34;;;;;;;7.00;2.50;;;;;;;-145.18;100.00;46646.72;5089972;28;20028;-64
2023/07/10 07:01:00;;;;;;;10.17;3.00;;;;;;;-145.18;100.00;46648.69;5085215;28;20030;-63
2023/07/10 07:03:27;;;;;;;6.73;2.20;;;;;;;-145.18;100.00;46650.63;5089626;28;20039;-63
2023/07/10 07:05:53;;;;;;;12.03;2.53;;;;;;;-145.18;100.00;46650.63;5090891;28;20024;-64
2023/07/10 07:08:19;;;;;;;6.63;2.30;;;;;;;-145.18;100.00;46652.59;5089806;28;20020;-64
2023/07/10 07:10:46;;;;;;;11.10;2.20;;;;;;;-145.18;100.00;46662.34;5090655;28;20054;-63
2023/07/10 07:13:12;;;;;;;10.30;2.03;;;;;;;-145.18;100.00;46652.59;5089463;28;20411;-63
2023/07/10 07:15:37;;;;;;;6.60;1.83;;;;;;;-145.18;100.00;46652.59;5090605;28;20028;-63
2023/07/10 07:18:03;;;;;;;6.20;1.80;;;;;;;-145.18;100.00;46656.50;5089164;28;20457;-63
2023/07/10 07:20:30;;;;;;;8.37;2.30;;;;;;;-145.18;100.00;46654.53;5090775;28;20020;-63
2023/07/10 07:22:55;;;;;;;6.67;1.90;;;;;;;-145.18;100.00;46652.59;5104679;28;20035;-63
2023/07/10 07:25:21;;;;;;;11.13;2.80;;;;;;;-145.18;100.00;46656.50;5106184;28;20034;-63
2023/07/10 07:27:46;;;;;;;5.53;2.13;;;;;;;-145.18;100.00;46660.41;5089771;28;20027;-63
2023/07/10 07:30:12;;;;;;;10.40;2.10;;;;;;;-145.18;100.00;46660.41;5083129;28;20108;-63
2023/07/10 07:32:37;;;;;;;5.87;1.90;;;;;;;-145.18;100.00;46658.44;5088785;28;20039;-64
2023/07/10 07:35:03;;;;;;;9.93;2.07;;;;;;;-145.18;100.00;46660.41;5095011;28;20092;-63
2023/07/10 07:37:28;;;;;;;7.97;2.03;;;;;;;-145.18;100.00;46660.41;5094587;28;20031;-63
2023/07/10 07:39:58;;;;;;;6.63;1.80;;;;;;;-145.18;100.00;46662.34;5087500;28;20067;-63
2023/07/10 07:42:24;;;;;;;11.90;2.13;;;;;;;-145.18;100.00;46664.31;5075481;28;20111;-63
2023/07/10 07:44:49;;;;;;;6.63;2.40;;;;;;;-145.18;100.00;46670.16;5075072;28;20119;-63
2023/07/10 07:47:15;;;;;;;6.97;2.20;;;;;;;-145.18;100.00;46674.06;5089423;28;20471;-63
2023/07/10 07:49:41;;;;;;;9.87;1.90;;;;;;;-145.18;100.00;46674.06;5076790;28;20650;-64
2023/07/10 07:52:06;;;;;;;5.00;2.10;;;;;;;-145.18;100.00;46670.16;5089258;28;20064;-64
2023/07/10 07:54:32;;;;;;;7.10;2.10;;;;;;;-145.18;100.00;46674.06;5080503;28;20029;-63
2023/07/10 07:56:57;;;;;;;8.30;2.17;;;;;;;-145.18;100.00;46676.03;5077068;28;20053;-63
2023/07/10 07:59:23;;;;;;;10.47;2.03;;;;;;;-145.18;100.00;46676.03;5077164;28;20039;-64
2023/07/10 08:01:50;;;;;;;11.63;2.60;;;;;;;-145.18;100.00;46674.06;5081905;28;20032;-66
2023/07/10 08:04:16;;;;;;;5.20;1.90;;;;;;;-145.18;100.00;46674.06;5083932;28;20028;-66
2023/07/10 08:06:41;;;;;;;7.47;2.37;;;;;;;-145.18;100.00;46672.13;5087980;28;20483;-66
2023/07/10 08:09:07;;;;;;;7.83;2.07;;;;;;;-145.18;100.00;46672.13;5087572;28;20089;-66
2023/07/10 08:11:32;;;;;;;6.00;1.90;;;;;;;-145.18;100.00;46681.88;5088177;28;20024;-66
2023/07/10 08:13:57;;;;;;;6.67;2.03;;;;;;;-145.18;100.00;46679.94;5083788;28;20033;-66
2023/07/10 08:16:23;;;;;;;12.30;1.90;;;;;;;-145.18;100.00;46677.97;5092892;28;20040;-67
2023/07/10 08:18:49;;;;;;;10.13;2.20;;;;;;;-145.18;100.00;46677.97;5066794;28;20051;-66
2023/07/10 08:21:15;;;;;;;7.60;1.80;;;;;;;-145.18;100.00;46654.53;5088640;28;20028;-66
2023/07/10 08:23:40;;;;;;;9.73;1.97;;;;;;;-145.18;100.00;46644.78;5088258;28;20028;-67
2023/07/10 08:26:06;;;;;;;7.00;2.53;;;;;;;-145.18;100.00;46633.06;5090991;28;20093;-66
2023/07/10 08:28:32;;;;;;;11.90;2.13;;;;;;;-145.18;100.00;46597.88;5084318;28;20043;-66
2023/07/10 08:30:58;;;;;;;6.77;2.03;;;;;;;-145.18;100.00;46549.06;5089532;28;20487;-66
2023/07/10 08:33:23;;;;;;;6.20;2.23;;;;;;;-145.18;100.00;46603.75;5075245;28;20506;-66
2023/07/10 08:35:56;;;;;;;4.90;1.60;;;;;;;-145.18;100.00;46586.16;5083726;28;20035;-66
2023/07/10 08:38:22;;;;;;;9.97;2.17;;;;;;;-145.18;100.00;46551.00;5085683;28;20388;-64
2023/07/10 08:40:53;;;;;;;8.60;2.03;;;;;;;-145.18;100.00;46552.97;5080859;28;20033;-66
2023/07/10 08:43:28;;;;;;;7.17;1.93;;;;;;;-145.18;100.00;46543.19;5064788;28;20486;-66
2023/07/10 08:46:11;;;;;;;4.43;1.77;;;;;;;-145.18;100.00;46547.09;5077138;28;20035;-66
2023/07/10 08:48:42;;;;;;;6.43;1.80;;;;;;;-145.18;100.00;46547.09;5076068;28;20029;-66
2023/07/10 08:51:22;;;;;;;10.13;2.10;;;;;;;-145.18;100.00;46549.06;5088394;28;20035;-66
2023/07/10 08:54:01;;;;;;;9.40;1.87;;;;;;;-145.18;100.00;46551.00;5084104;28;20073;-66
2023/07/10 08:56:47;;;;;;;7.30;2.17;;;;;;;-145.18;100.00;46562.72;5076096;28;20053;-64
2023/07/10 08:59:42;;;;;;;8.25;1.30;;;;;;;-145.18;100.00;46549.06;5091807;28;20114;-66
2023/07/10 09:02:26;;;;;;;7.15;1.77;;;;;;;-145.18;100.00;46552.97;5083132;28;20060;-66
2023/07/10 09:04:52;;;;;;;7.07;1.87;;;;;;;-145.18;100.00;46547.09;5076819;28;20396;-66
2023/07/10 09:07:19;;;;;;;6.47;1.40;;;;;;;-145.18;100.00;46549.06;5075474;28;20062;-66
2023/07/10 09:10:01;;;;;;;5.50;1.87;;;;;;;-145.18;100.00;46545.16;5083660;28;20035;-66
2023/07/10 09:12:57;;;;;;;7.10;1.57;;;;;;;-145.18;100.00;46533.44;5071848;28;20081;-67
2023/07/10 09:15:49;;;;;;;5.77;1.50;;;;;;;-145.18;100.00;46547.09;5082647;28;20043;-61
2023/07/10 09:18:30;;;;;;;6.70;1.50;;;;;;;-145.18;100.00;46554.91;5077495;28;20027;-61
2023/07/10 09:20:59;;;;;;;6.80;1.63;;;;;;;-145.18;100.00;46531.47;5083530;28;20102;-64
2023/07/10 09:23:29;;;;;;;9.97;2.17;;;;;;;-145.18;100.00;46537.34;5083931;28;20051;-61
2023/07/10 09:26:12;;;;;;;3.28;1.33;;;;;;;-145.18;100.00;46633.06;5088560;28;20112;-61
2023/07/10 09:28:39;;;;;;;6.55;1.23;;;;;;;-145.18;100.00;47090.16;5075947;28;20013;-61
2023/07/10 09:31:19;;;;;;;9.07;1.42;;;;;;;-145.18;100.00;47105.78;5085520;28;20032;-63
2023/07/10 09:33:52;;;;;;;6.00;1.25;;;;;;;-145.18;100.00;47035.44;5082240;28;20024;-63
2023/07/10 09:36:20;;;;;;;9.23;1.67;;;;;;;-145.18;100.00;47062.81;5081801;28;20028;-63
2023/07/10 09:38:47;;;;;;;5.60;1.33;;;;;;;-145.18;100.00;47125.31;5081712;28;20028;-63
2023/07/10 09:41:22;;;;;;;10.57;1.67;;;;;;;-145.18;100.00;47062.81;5084998;28;20024;-62
2023/07/10 09:43:54;;;;;;;5.30;1.50;;;;;;;-145.18;100.00;47035.44;5087555;28;20020;-63
2023/07/10 09:46:28;;;;;;;7.43;1.63;;;;;;;-145.18;100.00;47041.31;5069491;28;20031;-63
2023/07/10 09:48:56;;;;;;;4.45;1.40;;;;;;;-145.18;100.00;47043.28;5075244;28;20059;-63
2023/07/10 09:51:23;;;;;;;4.40;1.05;;;;;;;-145.18;100.00;47021.78;5092230;28;20031;-63
2023/07/10 09:53:53;;;;;;;4.15;1.48;;;;;;;-145.18;100.00;47015.91;5091785;28;20391;-64
2023/07/10 09:56:39;;;;;;;5.68;1.60;;;;;;;-145.18;100.00;47012.00;5083509;28;20076;-63
2023/07/10 09:59:30;;;;;;;4.45;1.17;;;;;;;-145.18;100.00;47017.88;5089596;28;20047;-63
2023/07/10 10:01:56;;;;;;;3.67;1.40;;;;;;;-145.18;100.00;47039.34;5091694;28;20036;-63
2023/07/10 10:04:29;;;;;;;4.40;1.23;;;;;;;-145.18;100.00;47074.53;5084433;28;20028;-63
2023/07/10 10:07:12;;;;;;;9.27;1.40;;;;;;;-145.18;100.00;47144.84;5073200;28;20038;-62
2023/07/10 10:09:37;;;;;;;5.25;1.35;;;;;;;-145.18;100.00;47139.00;5086726;28;20052;-63
2023/07/10 10:12:23;;;;;;;11.80;2.13;;;;;;;-145.18;100.00;47123.38;5073338;28;20025;-62
2023/07/10 10:15:36;;;;;;;4.05;1.52;;;;;;;-145.18;100.00;46636.94;5072998;28;20024;-63
2023/07/10 10:18:04;;;;;;;8.00;1.98;;;;;;;-145.18;100.00;47049.13;5075072;28;20044;-62
2023/07/10 10:20:33;;;;;;;5.68;1.60;;;;;;;-145.18;100.00;47092.09;5076958;28;20373;-62
2023/07/10 10:22:58;;;;;;;8.27;1.83;;;;;;;-145.18;100.00;47035.44;5075772;28;20024;-66
2023/07/10 10:25:35;;;;;;;10.48;1.80;;;;;;;-145.18;100.00;47013.97;5091865;28;20553;-66
2023/07/10 10:28:13;;;;;;;9.63;1.83;;;;;;;-145.18;100.00;47058.91;5091567;28;20483;-65
2023/07/10 10:30:59;;;;;;;6.45;2.20;;;;;;;-145.18;100.00;47164.38;5091610;28;20060;-66
2023/07/10 10:33:43;;;;;;;6.60;2.47;;;;;;;-145.18;100.00;47066.72;5088401;28;20023;-65
2023/07/10 10:36:39;;;;;;;3.55;1.30;;;;;;;-145.18;100.00;47060.84;5091721;28;20032;-66
2023/07/10 10:39:24;;;;;;;4.80;1.33;;;;;;;-145.18;100.00;47062.81;5084601;28;20034;-66
2023/07/10 10:41:55;;;;;;;7.22;1.90;;;;;;;-145.18;100.00;47004.19;5087617;28;20028;-66
2023/07/10 10:44:39;;;;;;;4.90;1.13;;;;;;;-145.18;100.00;47008.09;5081556;28;20036;-66
2023/07/10 10:47:30;;;;;;;4.63;1.20;;;;;;;-145.18;100.00;46990.53;5084076;28;20190;-66
2023/07/10 10:50:33;;;;;;;3.95;1.80;;;;;;;-145.18;100.00;46988.56;5078799;28;20051;-66
2023/07/10 10:53:10;;;;;;;4.18;1.40;;;;;;;-145.18;100.00;47000.28;5086382;28;20036;-66
2023/07/10 10:55:39;;;;;;;3.38;1.15;;;;;;;-145.18;100.00;47000.28;5083771;28;20105;-66
2023/07/10 10:58:21;;;;;;;6.65;2.05;;;;;;;-145.18;100.00;47015.91;5080649;28;20491;-66
2023/07/10 11:01:10;;;;;;;3.33;1.05;;;;;;;-145.18;100.00;46988.56;5084012;28;20016;-65
2023/07/10 11:03:36;;;;;;;3.72;1.25;;;;;;;-145.18;100.00;46982.72;5076355;28;20024;-65
2023/07/10 11:06:35;;;;;;;6.07;1.15;;;;;;;-145.18;100.00;46986.63;5077665;28;20016;-65
2023/07/10 11:09:07;;;;;;;3.35;1.27;;;;;;;-145.18;100.00;46976.84;5073030;28;20056;-66
2023/07/10 11:11:36;;;;;;;5.50;1.95;;;;;;;-145.18;100.00;46980.75;5089615;28;20472;-65
2023/07/10 11:14:03;;;;;;;5.03;1.17;;;;;;;-145.18;100.00;46976.84;5088851;28;20509;-65
2023/07/10 11:16:31;;;;;;;8.43;1.52;;;;;;;-145.18;100.00;46986.63;5092182;28;20027;-66
2023/07/10 11:19:00;;;;;;;7.30;1.45;;;;;;;-145.18;100.00;46974.91;5088955;28;20484;-65